Terminal Aerodrome Forecast
Issued by NWS

Home | Current Version | Previous Version | Text Only | Print | Product List | Glossary On
Versions: 1 2 3 4 5 6 7 8 9 10 11 12 13 14 15 16 17 18 19
000
FTUS45 KSLC 192108 AAB
TAF36U
TAF AMD
K36U 192108Z 1921/2018 23009KT P6SM VCSH SCT020 BKN050
      TEMPO 1921/1922 1SM -SHSN BKN015
     FM200200 VRB03KT P6SM SCT050 BKN100=

USA.gov is the U.S. government's official web portal to all federal, state and local government web resources and services.